Flugwetter

METAR EDDW
2021/05/13 15:50 EDDW 131550Z 35007KT 320V040 9999 FEW040 15/08 Q1006 NOSIG
TAF EDDW
2021/05/13 12:27 TAF EDDW 131100Z 1312/1412 31008KT 9999 FEW025 TEMPO 1320/1406 4000 BR BKN005
METAR EDDH
2021/05/13 15:50 EDDH 131550Z 30009KT 9999 -RA SCT007 SCT010 OVC022 12/11 Q1006 TEMPO BKN008
TAF EDDH
2021/05/13 12:27 TAF EDDH 131100Z 1312/1418 30007KT 9999 SCT010 BKN015 PROB30 TEMPO 1312/1319 BKN012 BECMG 1319/1321 BKN009 TEMPO 1321/1407 3500 BR BKN004 BECMG 1408/1410 BKN015
METAR VRMM
2021/05/13 15:00 VRMM 131500Z 25018KT 9999 FEW017TCU BKN110 30/26 Q1006 TEMPO 5000 SHRA
TAF VRMM
2021/05/13 12:12 TAF TAF VRMM 131100Z 1312/1418 25020KT 9000 SCT017TCU OVC100 TEMPO 1312/1318 25025G40KT 3000 SHRA SCT017CB

Quelle:

Bereitgestellt von den Servern der NOAA tgftp.nws.noaa.gov
Alle Angaben ohne Gewähr